createdAt,value
2023-03-22T00:02:26.426Z,99843.04
2023-03-22T00:04:55.224Z,99839.54
2023-03-22T00:07:23.541Z,99842.69
2023-03-22T00:09:52.188Z,99837.63
2023-03-22T00:12:20.636Z,99834.84
2023-03-22T00:14:49.675Z,99832.75
2023-03-22T00:17:18.655Z,99826.11
2023-03-22T00:19:47.690Z,99822.27
2023-03-22T00:22:16.442Z,99822.63
2023-03-22T00:24:44.901Z,99816.16
2023-03-22T00:27:13.394Z,99813.01
2023-03-22T00:29:42.320Z,99813.71
2023-03-22T00:32:10.668Z,99806.56
2023-03-22T00:34:38.929Z,99804.13
2023-03-22T00:37:08.238Z,99802.91
2023-03-22T00:39:36.559Z,99803.44
2023-03-22T00:42:06.890Z,99804.65
2023-03-22T00:44:35.108Z,99803.43
2023-03-22T00:47:03.816Z,99805.00
2023-03-22T00:49:35.393Z,99804.48
2023-03-22T00:52:03.900Z,99803.96
2023-03-22T00:54:32.190Z,99804.66
2023-03-22T00:57:00.715Z,99800.98
2023-03-22T00:59:29.024Z,99803.95
2023-03-22T01:01:59.177Z,99803.09
2023-03-22T01:04:29.673Z,99801.17
2023-03-22T01:07:02.328Z,99802.56
2023-03-22T01:09:33.955Z,99800.30
2023-03-22T01:12:03.218Z,99802.92
2023-03-22T01:14:32.112Z,99804.48
2023-03-22T01:17:00.799Z,99802.91
2023-03-22T01:19:32.182Z,99800.11
2023-03-22T01:22:00.538Z,99801.52
2023-03-22T01:24:28.705Z,99799.07
2023-03-22T01:26:57.423Z,99796.63
2023-03-22T01:29:29.634Z,99796.29
2023-03-22T01:31:58.011Z,99793.14
2023-03-22T01:34:27.108Z,99789.13
2023-03-22T01:36:55.481Z,99787.20
2023-03-22T01:39:23.963Z,99781.63
2023-03-22T01:41:52.563Z,99773.95
2023-03-22T01:44:23.378Z,99772.37
2023-03-22T01:46:52.272Z,99769.23
2023-03-22T01:49:35.294Z,99766.61
2023-03-22T01:52:11.966Z,99762.06
2023-03-22T01:54:52.934Z,99756.85
2023-03-22T01:57:21.843Z,99756.13
2023-03-22T01:59:54.027Z,99752.98
2023-03-22T02:02:24.880Z,99751.77
2023-03-22T02:04:58.359Z,99746.71
2023-03-22T02:07:27.447Z,99748.45
2023-03-22T02:09:56.024Z,99750.38
2023-03-22T02:12:33.096Z,99739.02
2023-03-22T02:15:13.512Z,99741.30
2023-03-22T02:18:11.575Z,99743.91
2023-03-22T02:21:21.697Z,99750.20
2023-03-22T02:24:18.678Z,99753.17
2023-03-22T02:27:00.024Z,99747.94
2023-03-22T02:30:02.473Z,99736.23
2023-03-22T02:32:55.241Z,99730.83
2023-03-22T02:35:57.708Z,99731.52
2023-03-22T02:38:58.118Z,99730.30
2023-03-22T02:41:38.919Z,99729.27
2023-03-22T02:44:35.716Z,99730.14
2023-03-22T02:47:12.406Z,99729.27
2023-03-22T02:49:42.880Z,99736.58
2023-03-22T02:52:30.544Z,99730.13
2023-03-22T02:55:11.189Z,99727.51
2023-03-22T02:57:50.685Z,99720.35
2023-03-22T03:00:20.065Z,99718.59
2023-03-22T03:03:00.312Z,99718.59
2023-03-22T03:05:32.564Z,99716.51
2023-03-22T03:08:02.942Z,99716.52
2023-03-22T03:10:31.500Z,99715.29
2023-03-22T03:13:00.091Z,99708.13
2023-03-22T03:15:29.145Z,99709.19
2023-03-22T03:18:36.918Z,99717.39
2023-03-22T03:21:17.459Z,99716.52
2023-03-22T03:24:07.191Z,99714.94
2023-03-22T03:26:53.901Z,99710.59
2023-03-22T03:29:22.122Z,99714.59
2023-03-22T03:32:13.574Z,99707.09
2023-03-22T03:34:58.146Z,99701.50
2023-03-22T03:37:34.243Z,99704.81
2023-03-22T03:40:16.801Z,99705.88
2023-03-22T03:42:50.801Z,99707.79
2023-03-22T03:45:22.295Z,99710.75
2023-03-22T03:47:57.286Z,99707.27
2023-03-22T03:50:27.221Z,99707.96
2023-03-22T03:52:56.008Z,99699.77
2023-03-22T03:55:24.654Z,99698.36
2023-03-22T03:57:52.827Z,99696.80
2023-03-22T04:00:21.097Z,99699.41
2023-03-22T04:02:49.627Z,99696.96
2023-03-22T04:05:18.294Z,99700.98
2023-03-22T04:07:46.615Z,99702.38
2023-03-22T04:10:14.920Z,99695.39
2023-03-22T04:12:43.111Z,99698.19
2023-03-22T04:15:12.625Z,99694.69
2023-03-22T04:17:41.498Z,99693.48
2023-03-22T04:20:11.183Z,99696.09
2023-03-22T04:22:41.449Z,99694.36
2023-03-22T04:25:13.097Z,99696.09
2023-03-22T04:27:42.873Z,99697.33
2023-03-22T04:30:13.050Z,99697.14
2023-03-22T04:32:41.261Z,99690.86
2023-03-22T04:35:09.721Z,99695.40
2023-03-22T04:37:38.007Z,99693.14
2023-03-22T04:40:08.401Z,99691.39
2023-03-22T04:42:36.654Z,99692.79
2023-03-22T04:45:06.116Z,99695.05
2023-03-22T04:47:34.458Z,99697.66
2023-03-22T04:50:03.192Z,99697.84
2023-03-22T04:52:31.393Z,99697.85
2023-03-22T04:54:59.870Z,99691.04
2023-03-22T04:57:28.292Z,99690.52
2023-03-22T04:59:56.541Z,99690.86
2023-03-22T05:02:24.736Z,99682.66
2023-03-22T05:04:53.095Z,99680.40
2023-03-22T05:07:21.758Z,99672.70
2023-03-22T05:09:49.968Z,99669.58
2023-03-22T05:12:18.470Z,99669.39
2023-03-22T05:14:46.707Z,99670.27
2023-03-22T05:17:14.992Z,99667.83
2023-03-22T05:19:44.215Z,99671.49
2023-03-22T05:22:13.443Z,99671.15
2023-03-22T05:24:41.844Z,99672.73
2023-03-22T05:27:11.177Z,99672.38
2023-03-22T05:29:39.367Z,99672.88
2023-03-22T05:32:07.614Z,99675.68
2023-03-22T05:34:37.331Z,99680.74
2023-03-22T05:37:05.505Z,99676.36
2023-03-22T05:39:33.986Z,99670.79
2023-03-22T05:42:02.273Z,99676.55
2023-03-22T05:44:30.470Z,99677.09
2023-03-22T05:46:59.230Z,99676.38
2023-03-22T05:49:27.620Z,99676.20
2023-03-22T05:51:56.138Z,99676.38
2023-03-22T05:54:24.508Z,99680.04
2023-03-22T05:56:55.263Z,99673.92
2023-03-22T05:59:23.937Z,99672.88
2023-03-22T06:01:52.844Z,99677.77
2023-03-22T06:04:21.295Z,99676.89
2023-03-22T06:06:50.651Z,99678.12
2023-03-22T06:09:19.072Z,99674.11
2023-03-22T06:11:47.406Z,99674.97
2023-03-22T06:14:16.166Z,99672.17
2023-03-22T06:16:44.455Z,99670.79
2023-03-22T06:19:13.087Z,99668.52
2023-03-22T06:21:41.415Z,99668.17
2023-03-22T06:24:09.909Z,99671.13
2023-03-22T06:26:38.149Z,99671.82
2023-03-22T06:29:06.717Z,99670.25
2023-03-22T06:31:34.989Z,99672.34
2023-03-22T06:34:04.366Z,99668.67
2023-03-22T06:36:33.070Z,99667.80
2023-03-22T06:39:02.966Z,99665.70
2023-03-22T06:41:31.397Z,99667.09
2023-03-22T06:43:59.637Z,99663.08
2023-03-22T06:46:28.063Z,99661.49
2023-03-22T06:48:56.364Z,99665.51
2023-03-22T06:51:24.900Z,99664.63
2023-03-22T06:53:53.197Z,99665.50
2023-03-22T06:56:21.477Z,99671.27
2023-03-22T06:58:52.060Z,99667.94
2023-03-22T07:01:23.418Z,99668.29
2023-03-22T07:03:52.016Z,99665.30
2023-03-22T07:06:20.387Z,99665.33
2023-03-22T07:08:50.746Z,99669.33
2023-03-22T07:11:20.532Z,99664.77
2023-03-22T07:13:49.561Z,99665.66
2023-03-22T07:16:19.917Z,99666.35
2023-03-22T07:18:48.512Z,99670.88
2023-03-22T07:21:16.710Z,99669.30
2023-03-22T07:23:44.929Z,99665.10
2023-03-22T07:26:13.716Z,99673.30
2023-03-22T07:28:44.865Z,99672.77
2023-03-22T07:31:14.487Z,99673.65
2023-03-22T07:33:43.155Z,99671.90
2023-03-22T07:36:11.681Z,99666.65
2023-03-22T07:38:40.738Z,99665.96
2023-03-22T07:41:09.040Z,99662.98
2023-03-22T07:43:52.297Z,99660.70
2023-03-22T07:46:21.019Z,99660.52
2023-03-22T07:48:49.826Z,99656.33
2023-03-22T07:51:19.377Z,99661.40
2023-03-22T07:53:47.609Z,99661.89
2023-03-22T07:56:15.916Z,99661.03
2023-03-22T07:58:44.496Z,99664.33
2023-03-22T08:01:12.877Z,99659.96
2023-03-22T08:03:41.791Z,99659.95
2023-03-22T08:06:10.463Z,99657.13
2023-03-22T08:08:39.245Z,99657.13
2023-03-22T08:11:08.250Z,99652.91
2023-03-22T08:13:36.599Z,99645.91
2023-03-22T08:16:05.944Z,99638.73
2023-03-22T08:18:34.504Z,99626.66
2023-03-22T08:21:02.771Z,99618.27
2023-03-22T08:23:41.477Z,99621.04
2023-03-22T08:26:11.363Z,99622.07
2023-03-22T08:28:39.649Z,99629.39
2023-03-22T08:31:18.732Z,99629.89
2023-03-22T08:33:47.738Z,99635.27
2023-03-22T08:36:19.062Z,99635.41
2023-03-22T08:38:48.556Z,99631.05
2023-03-22T08:41:16.838Z,99631.37
2023-03-22T08:43:45.069Z,99631.71
2023-03-22T08:46:13.393Z,99639.23
2023-03-22T08:48:41.855Z,99634.50
2023-03-22T08:51:10.901Z,99632.55
2023-03-22T08:53:39.129Z,99630.94
2023-03-22T08:56:08.028Z,99631.13
2023-03-22T08:58:36.650Z,99625.85
2023-03-22T09:01:05.166Z,99619.55
2023-03-22T09:03:33.453Z,99618.29
2023-03-22T09:06:02.149Z,99612.67
2023-03-22T09:08:30.822Z,99610.52
2023-03-22T09:10:59.168Z,99609.80
2023-03-22T09:13:27.596Z,99613.59
2023-03-22T09:15:55.833Z,99610.24
2023-03-22T09:18:25.194Z,99610.58
2023-03-22T09:20:53.542Z,99604.95
2023-03-22T09:23:21.788Z,99606.16
2023-03-22T09:25:50.014Z,99612.61
2023-03-22T09:28:19.398Z,99606.82
2023-03-22T09:30:47.791Z,99601.02
2023-03-22T09:33:15.990Z,99598.92
2023-03-22T09:35:45.035Z,99593.14
2023-03-22T09:38:14.002Z,99597.16
2023-03-22T09:41:01.058Z,99601.17
2023-03-22T09:43:33.713Z,99596.96
2023-03-22T09:46:04.084Z,99601.49
2023-03-22T09:48:37.414Z,99606.56
2023-03-22T09:51:14.074Z,99600.09
2023-03-22T09:53:42.310Z,99599.75
2023-03-22T09:56:23.267Z,99599.75
2023-03-22T09:59:07.594Z,99595.54
2023-03-22T10:01:37.757Z,99596.09
2023-03-22T10:04:44.180Z,99592.90
2023-03-22T10:07:22.452Z,99596.72
2023-03-22T10:09:56.810Z,99595.29
2023-03-22T10:13:02.332Z,99588.10
2023-03-22T10:15:42.797Z,99589.13
2023-03-22T10:18:25.059Z,99585.59
2023-03-22T10:21:09.681Z,99582.61
2023-03-22T10:23:47.889Z,99578.91
2023-03-22T10:26:30.686Z,99575.20
2023-03-22T10:29:12.638Z,99568.49
2023-03-22T10:31:44.920Z,99567.73
2023-03-22T10:34:23.682Z,99562.81
2023-03-22T10:36:53.276Z,99562.09
2023-03-22T10:39:38.414Z,99562.91
2023-03-22T10:42:21.495Z,99556.61
2023-03-22T10:44:51.170Z,99554.11
2023-03-22T10:47:34.442Z,99558.64
2023-03-22T10:50:05.759Z,99563.33
2023-03-22T10:52:41.844Z,99558.23
2023-03-22T10:55:12.764Z,99564.16
2023-03-22T10:57:46.461Z,99561.54
2023-03-22T11:00:17.830Z,99561.69
2023-03-22T11:02:52.068Z,99557.79
2023-03-22T11:05:30.308Z,99560.02
2023-03-22T11:07:59.195Z,99556.27
2023-03-22T11:10:32.971Z,99552.71
2023-03-22T11:13:07.548Z,99552.83
2023-03-22T11:15:42.113Z,99548.39
2023-03-22T11:18:16.596Z,99543.77
2023-03-22T11:21:16.231Z,99545.96
2023-03-22T11:23:55.628Z,99543.10
2023-03-22T11:26:30.505Z,99544.34
2023-03-22T11:29:08.050Z,99544.85
2023-03-22T11:32:01.027Z,99539.92
2023-03-22T11:34:31.848Z,99536.57
2023-03-22T11:37:01.368Z,99531.61
2023-03-22T11:39:30.359Z,99527.35
2023-03-22T11:42:04.434Z,99519.05
2023-03-22T11:44:35.645Z,99510.94
2023-03-22T11:47:08.000Z,99514.61
2023-03-22T11:49:51.080Z,99513.19
2023-03-22T11:52:23.471Z,99511.58
2023-03-22T11:54:54.365Z,99509.08
2023-03-22T11:57:29.988Z,99504.48
2023-03-22T12:00:12.328Z,99500.94
2023-03-22T12:02:55.070Z,99498.83
2023-03-22T12:05:45.076Z,99495.84
2023-03-22T12:08:16.005Z,99490.08
2023-03-22T12:10:49.399Z,99488.70
2023-03-22T12:13:48.812Z,99485.33
2023-03-22T12:16:25.097Z,99481.45
2023-03-22T12:19:38.691Z,99478.61
2023-03-22T12:22:16.271Z,99471.91
2023-03-22T12:24:45.519Z,99470.46
2023-03-22T12:27:37.669Z,99462.54
2023-03-22T12:30:12.561Z,99458.64
2023-03-22T12:32:44.830Z,99464.26
2023-03-22T12:35:22.470Z,99472.08
2023-03-22T12:37:54.420Z,99467.66
2023-03-22T12:40:32.374Z,99463.59
2023-03-22T12:43:34.966Z,99464.08
2023-03-22T12:46:05.550Z,99468.91
2023-03-22T12:48:47.532Z,99470.29
2023-03-22T12:51:16.067Z,99467.44
2023-03-22T12:54:05.587Z,99467.92
2023-03-22T12:56:41.341Z,99466.98
2023-03-22T12:59:18.652Z,99468.88
2023-03-22T13:01:53.949Z,99464.77
2023-03-22T13:04:37.911Z,99463.70
2023-03-22T13:07:14.221Z,99467.36
2023-03-22T13:09:51.430Z,99470.98
2023-03-22T13:12:19.601Z,99466.23
2023-03-22T13:14:51.180Z,99470.08
2023-03-22T13:17:22.606Z,99473.57
2023-03-22T13:20:07.005Z,99471.96
2023-03-22T13:22:38.113Z,99462.41
2023-03-22T13:25:23.084Z,99466.59
2023-03-22T13:28:03.734Z,99458.65
2023-03-22T13:30:33.226Z,99450.73
2023-03-22T13:33:11.459Z,99447.00
2023-03-22T13:35:55.221Z,99435.55
2023-03-22T13:38:29.834Z,99430.90
2023-03-22T13:41:15.316Z,99433.15
2023-03-22T13:43:43.486Z,99421.52
2023-03-22T13:46:18.048Z,99422.55
2023-03-22T13:48:50.868Z,99416.05
2023-03-22T13:51:23.072Z,99410.44
2023-03-22T13:54:10.209Z,99400.25
2023-03-22T13:56:42.216Z,99391.64
2023-03-22T13:59:27.401Z,99387.25
2023-03-22T14:02:16.499Z,99382.88
2023-03-22T14:04:56.680Z,99382.89
2023-03-22T14:07:35.062Z,99374.66
2023-03-22T14:10:12.989Z,99378.15
2023-03-22T14:13:05.016Z,99382.33
2023-03-22T14:15:38.959Z,99390.25
2023-03-22T14:18:16.017Z,99394.45
2023-03-22T14:20:44.869Z,99395.52
